Ames, Oklahoma
Current Conditions -  °F | °C
As of 5:58 PM on Sunday 23 Nov 2014 (Local Time) from KEND Reporting Station
Light Rain Light Rain  
Wind Chill: 33°   Ceiling: 2100
Heat Index: 43°   Visibility: 10mi
Dew Point: 41°   Wind: 26mph
Humidity: 93%   Direction: 340°NNW
Pressure: 29.6"   Gusts: 36mph
Location:  36.25°N, 98.19°W
Report Text: KEND 232358Z AUTO 34023G31KT 10SM -RA FEW015 OVC021 06/05 A2960 RMK AO2 PK WND 32032/38 SLP026 P0003 60003 $
Loading
Personal Weather Stations






























Interactive Weather Map New forecast layout! Learn more

10-Day Weather Forecast

Advertisements
Track Severe Weather on mobile